ADDS METAR Data INFO
IDs: Format: Raw Decoded Include TAF

Data at: 0242 UTC 17 Jan 2018

KPBF 170153Z AUTO 36005KT 10SM CLR M10/M16 A3072 RMK AO2 SLP406 T11001161
KPBF 170053Z AUTO 02004KT 10SM CLR M10/M15 A3070 RMK AO2 SLP400 T11001150
KPBF 162353Z AUTO 03005KT 10SM CLR M09/M15 A3069 RMK AO2 SLP394 60000 T10941150 11078 21100 53002
KPBF 162253Z AUTO 02008KT 10SM CLR M08/M15 A3068 RMK AO2 SLP393 T10831150
KPBF 162153Z AUTO 02007KT 10SM CLR M08/M14 A3068 RMK AO2 UPE07B39E45 SLP392 P0000 T10781144
KPBF 162053Z AUTO 03008KT 10SM UP CLR M08/M15 A3068 RMK AO2 UPB1958E24B51 SLP392 P0000 60000 T10781150 56020
KPBF 161953Z AUTO 01008KT 10SM CLR M08/M15 A3068 RMK AO2 UPE46 SLP393 P0000 T10831150
KPBF 161853Z AUTO 01012KT 10SM UP CLR M09/M16 A3071 RMK AO2 UPB05 SLP401 P0000 T10891156
KPBF 161753Z AUTO 36011KT 10SM CLR M10/M16 A3074 RMK AO2 UPB09E53 SLP412 P0000 60000 T11001161 11078 21106 58006
KPBF 161653Z AUTO 35010KT 10SM CLR M11/M17 A3077 RMK AO2 UPE12B45E53 SLP421 P0000 T11061167
KPBF 161553Z AUTO 35012KT 10SM UP CLR M11/M17 A3077 RMK AO2 UPB36 SLP423 P0000 T11061167
KPBF 161453Z AUTO 35008G21KT 10SM CLR M10/M16 A3076 RMK AO2 SLP417 60000 T11001156 53024
KPBF 161353Z AUTO 34010KT 10SM BKN060 M09/M14 A3073 RMK AO2 SLP409 T10891139
KPBF 161253Z AUTO 34014G18KT 10SM FEW031 BKN065 OVC085 M08/M13 A3071 RMK AO2 UPB03E14SNE1159 SLP400 P0000 T10831133
KPBF 161153Z AUTO 35008KT 6SM -SN BKN032 OVC070 M08/M11 A3068 RMK AO2 SLP392 P0001 60008 70016 T10781106 11033 21083 53023
KPBF 161145Z AUTO 36011KT 4SM -SN OVC023 M08/M11 A3068 RMK AO2 P0001 T10781106
KPBF 161135Z AUTO 36010KT 2SM -SN BR OVC015 M08/M10 A3068 RMK AO2 P0001 T10831100
KPBF 161107Z AUTO 35011KT 1SM -SN BR FEW008 OVC013 M08/M09 A3066 RMK AO2 P0000 T10781094
KPBF 161053Z AUTO 01011KT 1 1/2SM -SN BR OVC012 M08/M09 A3065 RMK AO2 SLP381 P0002 T10781094
KPBF 161013Z AUTO 02014KT 1SM -SN BR BKN010 OVC014 M07/M09 A3064 RMK AO2 P0001 T10721089
KPBF 160953Z AUTO 35009G23KT 1 1/4SM -SN BR SCT012 OVC020 M07/M08 A3064 RMK AO2 SLP378 P0000 T10671083
KPBF 160927Z AUTO 35014G21KT 1 1/4SM -SN BR FEW006 SCT011 OVC019 M07/M08 A3062 RMK AO2 P0000 T10671083
KPBF 160916Z AUTO 34015KT 1SM -SN BR OVC009 M07/M08 A3063 RMK AO2 P0000 T10671078
KPBF 160906Z AUTO 33013KT 3/4SM -SN BR OVC009 M06/M07 A3063 RMK AO2 P0000 T10611072
KPBF 160853Z AUTO 34009KT 1 1/4SM -SN BR BKN011 OVC016 M06/M07 A3062 RMK AO2 SLP368 P0002 60005 T10561072 53019
KPBF 160841Z AUTO 35010G17KT 1 1/2SM -SN BR BKN011 OVC016 M06/M07 A3061 RMK AO2 P0001 T10561067
KPBF 160829Z AUTO 36010KT 2SM -SN BR SCT011 OVC016 M06/M07 A3060 RMK AO2 P0001 T10561067
KPBF 160809Z AUTO 01014G20KT 1 1/2SM -SN BR FEW008 OVC011 M06/M07 A3060 RMK AO2 P0000 T10561067
KPBF 160800Z AUTO 01015G21KT 1SM -SN BR VV009 M06/M07 A3060 RMK AO2 P0000 T10561067
KPBF 160753Z AUTO 36012G22KT 3/4SM -SN BR VV009 M06/M07 A3060 RMK AO2 SLP362 P0002 T10561067
KPBF 160745Z AUTO 36017G20KT 3/4SM -SN BR VV009 M06/M07 A3059 RMK AO2 P0002 T10561067
KPBF 160735Z AUTO 36010KT 3/4SM -SN BR BKN011 OVC017 M06/M07 A3059 RMK AO2 P0001 T10561067
KPBF 160726Z AUTO 01016KT 1 3/4SM -SN BR FEW011 OVC017 M06/M07 A3059 RMK AO2 P0001 T10561067
KPBF 160702Z AUTO 36016G22KT 2 1/2SM -SN BR BKN013 OVC017 M05/M06 A3057 RMK AO2 P0000 T10501061
KPBF 160653Z AUTO 36016G20KT 1 3/4SM -SN BR OVC011 M04/M06 A3056 RMK AO2 SLP350 P0001 T10441056
KPBF 160601Z AUTO 01016KT 1 1/4SM -SN BR FEW009 OVC012 M04/M05 A3054 RMK AO2 PRESFR P0001 T10391050
KPBF 160553Z AUTO 35015G23KT 1SM -SN BR VV011 M03/M05 A3056 RMK AO2 PK WND 36026/0518 SLP349 P0002 60008 T10331050 10050 21033 400941050 53030
KPBF 160534Z AUTO 35013G22KT 1 1/4SM -SN BR OVC011 M03/M04 A3056 RMK AO2 PK WND 36026/0518 P0002 T10281039
KPBF 160453Z AUTO 01018KT 1 1/2SM -SN BR BKN006 BKN010 OVC015 M02/M03 A3053 RMK AO2 SLP339 P0002 T10171028
KPBF 160424Z AUTO 36019G25KT 1 3/4SM -SN BR BKN009 OVC017 M01/M02 A3051 RMK AO2 P0001 T10061017
KPBF 160416Z AUTO 36014G22KT 1 3/4SM -SN BR FEW007 BKN011 OVC017 M01/M01 A3051 RMK AO2 P0000 T10061011
KPBF 160353Z AUTO 02013KT 2 1/2SM -SN BR FEW007 BKN022 OVC028 00/M01 A3049 RMK AO2 RAE0254SNB0254 SLP326 P0003 T00001011
KPBF 160333Z AUTO 01013KT 2SM -SN BR SCT007 OVC018 00/M01 A3047 RMK AO2 RAE0254SNB0254 P0002 T00001006
KPBF 160320Z AUTO 01016KT 2 1/2SM -SN BR SCT009 OVC014 01/M01 A3047 RMK AO2 RAE0254SNB0254 P0002 T00061006
KPBF 160302Z AUTO 01015KT 4SM -SN BR BKN009 BKN014 OVC029 01/00 A3047 RMK AO2 RAE0254SNB0254 P0001 T00110000
KPBF 160253Z AUTO 02011KT 5SM -RA BR SCT009 BKN014 OVC044 02/00 A3047 RMK AO2 RAE41B52SNB41E52 SLP319 P0001 60001 T00170000 51029
KPBF 160246Z AUTO 03011G19KT 5SM -SN BR FEW009 BKN012 OVC044 02/00 A3046 RMK AO2 RAE41SNB41 P0001 T00170000
KPBF 160153Z AUTO 04011KT 10SM -RA OVC040 03/M01 A3045 RMK AO2 RAB04E22B45 SLP311 P0000 T00331006
KPBF 160053Z AUTO 04009KT 10SM OVC038 04/M01 A3042 RMK AO2 SLP301 T00391006
KPBF 152353Z AUTO 01008KT 10SM OVC032 05/M01 A3038 RMK AO2 SLP290 T00501011 10094 20050 52012
KPBF 152334Z AUTO 02009KT 10SM OVC030 05/M01 A3038 RMK AO2 T00501011
KPBF 152253Z AUTO 01007KT 10SM BKN019 OVC024 05/M01 A3038 RMK AO2 SLP287 T00501006
KPBF 152153Z AUTO 01008KT 10SM BKN024 OVC029 06/03 A3036 RMK AO2 SLP281 T00610028
KPBF 152053Z AUTO 30005KT 10SM OVC024 07/01 A3035 RMK AO2 SLP278 T00720011 55013
KPBF 151953Z AUTO 31006KT 10SM OVC024 08/M01 A3034 RMK AO2 SLP274 T00831011
KPBF 151929Z AUTO 29007KT 10SM BKN022 OVC042 08/M01 A3033 RMK AO2 T00831011
KPBF 151853Z AUTO 27006KT 10SM FEW026 OVC040 09/M02 A3034 RMK AO2 SLP276 T00891022
KPBF 151844Z AUTO 25007KT 220V290 10SM SCT027 OVC040 09/M03 A3035 RMK AO2 T00891028
KPBF 151753Z AUTO 27010KT 10SM BKN026 09/M03 A3039 RMK AO2 SLP290 T00891028 10094 21039 58004
KPBF 151653Z AUTO 22010G15KT 10SM CLR 07/M03 A3041 RMK AO2 SLP299 T00721033
KPBF 151553Z AUTO 22007KT 10SM CLR 04/M03 A3041 RMK AO2 SLP299 T00441033
KPBF 151453Z AUTO 21008KT 10SM CLR 01/M04 A3040 RMK AO2 SLP295 T00111039 53010